sensor_id;sensor_type;location;lat;lon;timestamp;P1;durP1;ratioP1;P2;durP2;ratioP2
50231;SDS011;36118;56.468;84.952;2022-09-09T00:04:38;4.95;;;3.00;;
50231;SDS011;36118;56.468;84.952;2022-09-09T00:15:02;5.03;;;2.50;;
50231;SDS011;36118;56.468;84.952;2022-09-09T00:20:20;5.32;;;2.45;;
50231;SDS011;36118;56.468;84.952;2022-09-09T00:26:04;7.47;;;2.60;;
50231;SDS011;36118;56.468;84.952;2022-09-09T00:36:18;11.80;;;6.15;;
50231;SDS011;36118;56.468;84.952;2022-09-09T00:57:29;6.82;;;3.00;;
50231;SDS011;36118;56.468;84.952;2022-09-09T01:08:03;6.20;;;2.80;;
50231;SDS011;36118;56.468;84.952;2022-09-09T01:13:16;10.40;;;3.10;;
50231;SDS011;36118;56.468;84.952;2022-09-09T01:18:26;11.52;;;3.10;;
50231;SDS011;36118;56.468;84.952;2022-09-09T01:29:27;6.72;;;2.65;;
50231;SDS011;36118;56.468;84.952;2022-09-09T01:34:31;7.85;;;3.03;;
50231;SDS011;36118;56.468;84.952;2022-09-09T01:39:40;5.95;;;2.90;;
50231;SDS011;36118;56.468;84.952;2022-09-09T01:44:47;8.00;;;3.60;;
50231;SDS011;36118;56.468;84.952;2022-09-09T01:49:51;9.25;;;2.90;;
50231;SDS011;36118;56.468;84.952;2022-09-09T01:54:58;6.60;;;2.92;;
50231;SDS011;36118;56.468;84.952;2022-09-09T02:00:14;4.75;;;2.63;;
50231;SDS011;36118;56.468;84.952;2022-09-09T02:05:21;11.38;;;2.85;;
50231;SDS011;36118;56.468;84.952;2022-09-09T02:10:40;8.15;;;3.20;;
50231;SDS011;36118;56.468;84.952;2022-09-09T02:15:56;4.68;;;3.22;;
50231;SDS011;36118;56.468;84.952;2022-09-09T02:21:12;6.88;;;2.88;;
50231;SDS011;36118;56.468;84.952;2022-09-09T02:26:15;4.10;;;2.70;;
50231;SDS011;36118;56.468;84.952;2022-09-09T02:31:29;5.63;;;2.40;;
50231;SDS011;36118;56.468;84.952;2022-09-09T02:36:39;7.97;;;3.10;;
50231;SDS011;36118;56.468;84.952;2022-09-09T02:41:43;5.93;;;2.55;;
50231;SDS011;36118;56.468;84.952;2022-09-09T02:52:13;5.60;;;2.80;;
50231;SDS011;36118;56.468;84.952;2022-09-09T02:57:30;7.63;;;3.28;;
50231;SDS011;36118;56.468;84.952;2022-09-09T03:02:34;6.63;;;3.55;;
50231;SDS011;36118;56.468;84.952;2022-09-09T03:07:40;7.65;;;3.10;;
50231;SDS011;36118;56.468;84.952;2022-09-09T03:12:43;8.52;;;2.83;;
50231;SDS011;36118;56.468;84.952;2022-09-09T03:17:47;7.65;;;3.00;;
50231;SDS011;36118;56.468;84.952;2022-09-09T03:22:49;7.93;;;3.40;;
50231;SDS011;36118;56.468;84.952;2022-09-09T03:27:53;5.55;;;3.22;;
50231;SDS011;36118;56.468;84.952;2022-09-09T03:32:57;8.17;;;3.20;;
50231;SDS011;36118;56.468;84.952;2022-09-09T03:38:05;8.38;;;3.00;;
50231;SDS011;36118;56.468;84.952;2022-09-09T03:43:10;9.47;;;3.30;;
50231;SDS011;36118;56.468;84.952;2022-09-09T03:48:13;6.80;;;3.15;;
50231;SDS011;36118;56.468;84.952;2022-09-09T03:53:18;6.65;;;3.17;;
50231;SDS011;36118;56.468;84.952;2022-09-09T04:03:34;6.28;;;2.88;;
50231;SDS011;36118;56.468;84.952;2022-09-09T04:08:37;7.15;;;3.60;;
50231;SDS011;36118;56.468;84.952;2022-09-09T04:13:41;7.97;;;2.92;;
50231;SDS011;36118;56.468;84.952;2022-09-09T04:18:46;8.50;;;2.85;;
50231;SDS011;36118;56.468;84.952;2022-09-09T04:23:51;7.47;;;3.47;;
50231;SDS011;36118;56.468;84.952;2022-09-09T04:28:54;5.78;;;3.70;;
50231;SDS011;36118;56.468;84.952;2022-09-09T04:33:58;6.60;;;3.20;;
50231;SDS011;36118;56.468;84.952;2022-09-09T04:39:04;5.60;;;2.78;;
50231;SDS011;36118;56.468;84.952;2022-09-09T04:44:07;5.95;;;2.83;;
50231;SDS011;36118;56.468;84.952;2022-09-09T04:49:10;4.30;;;2.58;;
50231;SDS011;36118;56.468;84.952;2022-09-09T04:54:17;6.10;;;2.63;;
50231;SDS011;36118;56.468;84.952;2022-09-09T04:59:21;6.35;;;2.90;;
50231;SDS011;36118;56.468;84.952;2022-09-09T05:04:28;6.20;;;2.80;;
50231;SDS011;36118;56.468;84.952;2022-09-09T05:09:31;8.57;;;2.70;;
50231;SDS011;36118;56.468;84.952;2022-09-09T05:14:35;6.53;;;2.50;;
50231;SDS011;36118;56.468;84.952;2022-09-09T05:19:40;4.60;;;1.97;;
50231;SDS011;36118;56.468;84.952;2022-09-09T05:24:42;4.50;;;1.50;;
50231;SDS011;36118;56.468;84.952;2022-09-09T05:29:47;5.15;;;1.50;;
50231;SDS011;36118;56.468;84.952;2022-09-09T05:34:50;3.42;;;2.05;;
50231;SDS011;36118;56.468;84.952;2022-09-09T05:39:53;4.53;;;1.90;;
50231;SDS011;36118;56.468;84.952;2022-09-09T05:44:57;2.80;;;1.60;;
50231;SDS011;36118;56.468;84.952;2022-09-09T05:50:01;5.75;;;1.40;;
50231;SDS011;36118;56.468;84.952;2022-09-09T05:55:04;2.90;;;1.50;;
50231;SDS011;36118;56.468;84.952;2022-09-09T06:00:08;3.03;;;1.40;;
50231;SDS011;36118;56.468;84.952;2022-09-09T06:05:14;4.10;;;1.50;;
50231;SDS011;36118;56.468;84.952;2022-09-09T06:10:18;5.15;;;1.80;;
50231;SDS011;36118;56.468;84.952;2022-09-09T06:15:21;8.00;;;2.30;;
50231;SDS011;36118;56.468;84.952;2022-09-09T06:20:24;2.88;;;1.50;;
50231;SDS011;36118;56.468;84.952;2022-09-09T06:25:28;4.88;;;1.40;;
50231;SDS011;36118;56.468;84.952;2022-09-09T06:30:31;5.22;;;1.48;;
50231;SDS011;36118;56.468;84.952;2022-09-09T06:35:34;4.70;;;1.63;;
50231;SDS011;36118;56.468;84.952;2022-09-09T06:40:38;3.53;;;1.48;;
50231;SDS011;36118;56.468;84.952;2022-09-09T06:45:52;5.05;;;1.88;;
50231;SDS011;36118;56.468;84.952;2022-09-09T06:51:02;2.75;;;1.50;;
50231;SDS011;36118;56.468;84.952;2022-09-09T07:01:19;5.18;;;2.22;;
50231;SDS011;36118;56.468;84.952;2022-09-09T07:06:25;4.57;;;1.63;;
50231;SDS011;36118;56.468;84.952;2022-09-09T07:11:32;6.63;;;1.35;;
50231;SDS011;36118;56.468;84.952;2022-09-09T07:21:40;4.10;;;1.50;;
50231;SDS011;36118;56.468;84.952;2022-09-09T07:26:45;8.05;;;1.60;;
50231;SDS011;36118;56.468;84.952;2022-09-09T07:31:48;3.70;;;1.40;;
50231;SDS011;36118;56.468;84.952;2022-09-09T07:37:09;4.90;;;1.42;;
50231;SDS011;36118;56.468;84.952;2022-09-09T07:42:16;4.30;;;1.52;;
50231;SDS011;36118;56.468;84.952;2022-09-09T07:47:19;3.88;;;1.75;;
50231;SDS011;36118;56.468;84.952;2022-09-09T07:52:24;3.70;;;2.00;;
50231;SDS011;36118;56.468;84.952;2022-09-09T07:57:31;4.15;;;1.50;;
50231;SDS011;36118;56.468;84.952;2022-09-09T08:02:35;5.33;;;2.20;;
50231;SDS011;36118;56.468;84.952;2022-09-09T08:07:39;5.10;;;1.60;;
50231;SDS011;36118;56.468;84.952;2022-09-09T08:12:42;2.58;;;1.60;;
50231;SDS011;36118;56.468;84.952;2022-09-09T08:18:06;2.78;;;1.40;;
50231;SDS011;36118;56.468;84.952;2022-09-09T08:23:09;3.30;;;1.60;;
50231;SDS011;36118;56.468;84.952;2022-09-09T08:28:12;4.82;;;2.05;;
50231;SDS011;36118;56.468;84.952;2022-09-09T08:33:15;4.85;;;1.45;;
50231;SDS011;36118;56.468;84.952;2022-09-09T08:38:18;4.78;;;1.67;;
50231;SDS011;36118;56.468;84.952;2022-09-09T08:43:20;3.88;;;1.80;;
50231;SDS011;36118;56.468;84.952;2022-09-09T08:48:37;4.85;;;2.45;;
50231;SDS011;36118;56.468;84.952;2022-09-09T08:53:48;2.88;;;1.38;;
50231;SDS011;36118;56.468;84.952;2022-09-09T09:09:36;3.13;;;1.42;;
50231;SDS011;36118;56.468;84.952;2022-09-09T09:15:05;4.15;;;1.48;;
50231;SDS011;36118;56.468;84.952;2022-09-09T09:20:30;6.28;;;1.60;;
50231;SDS011;36118;56.468;84.952;2022-09-09T09:25:45;4.63;;;1.70;;
50231;SDS011;36118;56.468;84.952;2022-09-09T09:35:57;3.88;;;2.55;;
50231;SDS011;36118;56.468;84.952;2022-09-09T09:41:05;8.02;;;2.35;;
50231;SDS011;36118;56.468;84.952;2022-09-09T09:46:21;4.85;;;1.90;;
50231;SDS011;36118;56.468;84.952;2022-09-09T09:51:34;10.60;;;2.13;;
50231;SDS011;36118;56.468;84.952;2022-09-09T09:56:41;6.13;;;1.40;;
50231;SDS011;36118;56.468;84.952;2022-09-09T10:01:45;3.97;;;1.20;;
50231;SDS011;36118;56.468;84.952;2022-09-09T10:06:49;2.42;;;1.20;;
50231;SDS011;36118;56.468;84.952;2022-09-09T10:11:58;5.18;;;1.38;;
50231;SDS011;36118;56.468;84.952;2022-09-09T10:22:38;7.70;;;1.30;;
50231;SDS011;36118;56.468;84.952;2022-09-09T10:33:10;4.05;;;1.33;;
50231;SDS011;36118;56.468;84.952;2022-09-09T10:38:41;2.75;;;1.20;;
50231;SDS011;36118;56.468;84.952;2022-09-09T10:43:51;6.03;;;1.70;;
50231;SDS011;36118;56.468;84.952;2022-09-09T10:49:21;3.85;;;1.88;;
50231;SDS011;36118;56.468;84.952;2022-09-09T10:55:07;5.03;;;2.47;;
50231;SDS011;36118;56.468;84.952;2022-09-09T11:00:21;8.02;;;2.40;;
50231;SDS011;36118;56.468;84.952;2022-09-09T11:16:08;6.05;;;2.38;;
50231;SDS011;36118;56.468;84.952;2022-09-09T11:21:33;9.30;;;4.88;;
50231;SDS011;36118;56.468;84.952;2022-09-09T11:26:44;6.32;;;2.83;;
50231;SDS011;36118;56.468;84.952;2022-09-09T11:31:58;7.05;;;3.78;;
50231;SDS011;36118;56.468;84.952;2022-09-09T11:42:42;8.30;;;3.72;;
50231;SDS011;36118;56.468;84.952;2022-09-09T11:47:55;9.18;;;3.92;;
50231;SDS011;36118;56.468;84.952;2022-09-09T11:53:15;9.85;;;4.50;;
50231;SDS011;36118;56.468;84.952;2022-09-09T11:58:25;8.00;;;4.50;;
50231;SDS011;36118;56.468;84.952;2022-09-09T12:08:48;11.38;;;4.45;;
50231;SDS011;36118;56.468;84.952;2022-09-09T12:13:55;10.80;;;4.75;;
50231;SDS011;36118;56.468;84.952;2022-09-09T12:19:12;12.77;;;4.07;;
50231;SDS011;36118;56.468;84.952;2022-09-09T12:30:11;11.05;;;4.82;;
50231;SDS011;36118;56.468;84.952;2022-09-09T12:40:24;10.60;;;4.20;;
50231;SDS011;36118;56.468;84.952;2022-09-09T12:45:28;12.73;;;4.68;;
50231;SDS011;36118;56.468;84.952;2022-09-09T12:55:38;11.45;;;5.13;;
50231;SDS011;36118;56.468;84.952;2022-09-09T13:00:48;10.82;;;5.68;;
50231;SDS011;36118;56.468;84.952;2022-09-09T13:05:58;9.43;;;5.43;;
50231;SDS011;36118;56.468;84.952;2022-09-09T13:11:34;7.03;;;3.67;;
50231;SDS011;36118;56.468;84.952;2022-09-09T13:16:38;8.80;;;4.47;;
50231;SDS011;36118;56.468;84.952;2022-09-09T13:21:44;7.45;;;4.18;;
50231;SDS011;36118;56.468;84.952;2022-09-09T13:26:53;10.80;;;4.30;;
50231;SDS011;36118;56.468;84.952;2022-09-09T13:32:05;8.07;;;4.80;;
50231;SDS011;36118;56.468;84.952;2022-09-09T13:37:17;9.93;;;4.78;;
50231;SDS011;36118;56.468;84.952;2022-09-09T13:42:26;8.20;;;5.13;;
50231;SDS011;36118;56.468;84.952;2022-09-09T13:47:34;10.52;;;4.35;;
50231;SDS011;36118;56.468;84.952;2022-09-09T13:52:38;10.70;;;3.90;;
50231;SDS011;36118;56.468;84.952;2022-09-09T13:57:52;6.20;;;3.20;;
50231;SDS011;36118;56.468;84.952;2022-09-09T14:03:05;6.28;;;3.35;;
50231;SDS011;36118;56.468;84.952;2022-09-09T14:08:10;7.80;;;3.07;;
50231;SDS011;36118;56.468;84.952;2022-09-09T14:13:24;5.88;;;3.15;;
50231;SDS011;36118;56.468;84.952;2022-09-09T14:18:26;10.70;;;4.60;;
50231;SDS011;36118;56.468;84.952;2022-09-09T14:23:29;10.00;;;4.25;;
50231;SDS011;36118;56.468;84.952;2022-09-09T14:28:33;12.38;;;5.20;;
50231;SDS011;36118;56.468;84.952;2022-09-09T14:33:56;7.13;;;4.50;;
50231;SDS011;36118;56.468;84.952;2022-09-09T14:38:59;15.07;;;4.90;;
50231;SDS011;36118;56.468;84.952;2022-09-09T14:44:01;9.65;;;5.18;;
50231;SDS011;36118;56.468;84.952;2022-09-09T14:49:04;9.60;;;5.10;;
50231;SDS011;36118;56.468;84.952;2022-09-09T14:54:07;8.02;;;4.90;;
50231;SDS011;36118;56.468;84.952;2022-09-09T14:59:10;9.88;;;5.05;;
50231;SDS011;36118;56.468;84.952;2022-09-09T15:04:13;8.77;;;5.10;;
50231;SDS011;36118;56.468;84.952;2022-09-09T15:09:19;7.78;;;4.60;;
50231;SDS011;36118;56.468;84.952;2022-09-09T15:14:21;10.25;;;4.88;;
50231;SDS011;36118;56.468;84.952;2022-09-09T15:19:26;9.48;;;5.18;;
50231;SDS011;36118;56.468;84.952;2022-09-09T15:24:29;9.70;;;4.82;;
50231;SDS011;36118;56.468;84.952;2022-09-09T15:29:32;9.13;;;4.85;;
50231;SDS011;36118;56.468;84.952;2022-09-09T15:34:35;8.45;;;5.10;;
50231;SDS011;36118;56.468;84.952;2022-09-09T15:39:37;9.10;;;5.53;;
50231;SDS011;36118;56.468;84.952;2022-09-09T15:44:41;11.82;;;5.32;;
50231;SDS011;36118;56.468;84.952;2022-09-09T15:49:44;8.98;;;5.10;;
50231;SDS011;36118;56.468;84.952;2022-09-09T15:54:47;9.45;;;5.32;;
50231;SDS011;36118;56.468;84.952;2022-09-09T15:59:50;8.27;;;4.45;;
50231;SDS011;36118;56.468;84.952;2022-09-09T16:04:52;10.50;;;4.82;;
50231;SDS011;36118;56.468;84.952;2022-09-09T16:09:55;5.97;;;4.38;;
50231;SDS011;36118;56.468;84.952;2022-09-09T16:14:58;7.28;;;4.20;;
50231;SDS011;36118;56.468;84.952;2022-09-09T16:20:02;9.13;;;4.35;;
50231;SDS011;36118;56.468;84.952;2022-09-09T16:25:07;8.85;;;4.80;;
50231;SDS011;36118;56.468;84.952;2022-09-09T16:30:11;10.30;;;4.82;;
50231;SDS011;36118;56.468;84.952;2022-09-09T16:35:14;7.15;;;4.82;;
50231;SDS011;36118;56.468;84.952;2022-09-09T16:40:16;9.45;;;4.97;;
50231;SDS011;36118;56.468;84.952;2022-09-09T16:45:19;9.75;;;4.82;;
50231;SDS011;36118;56.468;84.952;2022-09-09T16:50:22;8.90;;;4.70;;
50231;SDS011;36118;56.468;84.952;2022-09-09T16:55:25;9.70;;;5.22;;
50231;SDS011;36118;56.468;84.952;2022-09-09T17:00:28;7.88;;;4.65;;
50231;SDS011;36118;56.468;84.952;2022-09-09T17:05:31;8.60;;;4.38;;
50231;SDS011;36118;56.468;84.952;2022-09-09T17:10:39;10.48;;;4.93;;
50231;SDS011;36118;56.468;84.952;2022-09-09T17:15:43;13.13;;;5.10;;
50231;SDS011;36118;56.468;84.952;2022-09-09T17:20:46;11.40;;;5.50;;
50231;SDS011;36118;56.468;84.952;2022-09-09T17:25:58;10.73;;;5.10;;
50231;SDS011;36118;56.468;84.952;2022-09-09T17:31:02;8.25;;;5.15;;
50231;SDS011;36118;56.468;84.952;2022-09-09T17:36:11;12.48;;;5.70;;
50231;SDS011;36118;56.468;84.952;2022-09-09T17:41:16;11.32;;;5.50;;
50231;SDS011;36118;56.468;84.952;2022-09-09T17:46:27;8.95;;;5.55;;
50231;SDS011;36118;56.468;84.952;2022-09-09T17:51:33;10.02;;;5.22;;
50231;SDS011;36118;56.468;84.952;2022-09-09T17:56:36;8.40;;;5.47;;
50231;SDS011;36118;56.468;84.952;2022-09-09T18:01:41;9.27;;;5.43;;
50231;SDS011;36118;56.468;84.952;2022-09-09T18:06:49;11.27;;;6.00;;
50231;SDS011;36118;56.468;84.952;2022-09-09T18:11:54;12.02;;;5.30;;
50231;SDS011;36118;56.468;84.952;2022-09-09T18:16:59;7.63;;;4.90;;
50231;SDS011;36118;56.468;84.952;2022-09-09T18:22:03;9.00;;;5.50;;
50231;SDS011;36118;56.468;84.952;2022-09-09T18:27:06;9.40;;;5.75;;
50231;SDS011;36118;56.468;84.952;2022-09-09T18:32:09;12.30;;;5.40;;
50231;SDS011;36118;56.468;84.952;2022-09-09T18:37:12;9.68;;;6.03;;
50231;SDS011;36118;56.468;84.952;2022-09-09T18:42:15;8.35;;;5.85;;
50231;SDS011;36118;56.468;84.952;2022-09-09T18:47:18;9.27;;;6.28;;
50231;SDS011;36118;56.468;84.952;2022-09-09T18:52:22;8.57;;;6.32;;
50231;SDS011;36118;56.468;84.952;2022-09-09T18:57:27;9.50;;;6.20;;
50231;SDS011;36118;56.468;84.952;2022-09-09T19:02:35;8.95;;;6.18;;
50231;SDS011;36118;56.468;84.952;2022-09-09T19:07:38;11.00;;;6.10;;
50231;SDS011;36118;56.468;84.952;2022-09-09T19:12:42;12.37;;;5.63;;
50231;SDS011;36118;56.468;84.952;2022-09-09T19:17:45;8.00;;;5.63;;
50231;SDS011;36118;56.468;84.952;2022-09-09T19:22:48;11.20;;;6.28;;
50231;SDS011;36118;56.468;84.952;2022-09-09T19:27:51;11.48;;;5.97;;
50231;SDS011;36118;56.468;84.952;2022-09-09T19:32:53;9.57;;;6.07;;
50231;SDS011;36118;56.468;84.952;2022-09-09T19:37:57;11.02;;;6.10;;
50231;SDS011;36118;56.468;84.952;2022-09-09T19:43:00;9.13;;;6.03;;
50231;SDS011;36118;56.468;84.952;2022-09-09T19:48:03;10.45;;;5.93;;
50231;SDS011;36118;56.468;84.952;2022-09-09T19:53:07;9.98;;;5.97;;
50231;SDS011;36118;56.468;84.952;2022-09-09T19:58:10;8.80;;;6.28;;
50231;SDS011;36118;56.468;84.952;2022-09-09T20:03:12;12.48;;;6.68;;
50231;SDS011;36118;56.468;84.952;2022-09-09T20:08:20;10.15;;;6.38;;
50231;SDS011;36118;56.468;84.952;2022-09-09T20:13:23;8.88;;;5.85;;
50231;SDS011;36118;56.468;84.952;2022-09-09T20:18:26;7.88;;;6.28;;
50231;SDS011;36118;56.468;84.952;2022-09-09T20:23:32;12.02;;;6.00;;
50231;SDS011;36118;56.468;84.952;2022-09-09T20:28:35;8.05;;;5.60;;
50231;SDS011;36118;56.468;84.952;2022-09-09T20:33:40;10.23;;;5.57;;
50231;SDS011;36118;56.468;84.952;2022-09-09T20:38:47;10.68;;;5.47;;
50231;SDS011;36118;56.468;84.952;2022-09-09T20:43:54;8.23;;;5.80;;
50231;SDS011;36118;56.468;84.952;2022-09-09T20:48:59;12.25;;;5.57;;
50231;SDS011;36118;56.468;84.952;2022-09-09T20:54:11;11.02;;;6.07;;
50231;SDS011;36118;56.468;84.952;2022-09-09T20:59:16;11.38;;;5.68;;
50231;SDS011;36118;56.468;84.952;2022-09-09T21:09:23;8.60;;;5.28;;
50231;SDS011;36118;56.468;84.952;2022-09-09T21:14:26;7.88;;;5.13;;
50231;SDS011;36118;56.468;84.952;2022-09-09T21:19:29;13.80;;;5.13;;
50231;SDS011;36118;56.468;84.952;2022-09-09T21:24:32;8.25;;;5.00;;
50231;SDS011;36118;56.468;84.952;2022-09-09T21:29:35;11.88;;;5.03;;
50231;SDS011;36118;56.468;84.952;2022-09-09T21:34:38;9.60;;;5.20;;
50231;SDS011;36118;56.468;84.952;2022-09-09T21:49:51;9.98;;;4.95;;
50231;SDS011;36118;56.468;84.952;2022-09-09T21:54:54;10.02;;;5.20;;
50231;SDS011;36118;56.468;84.952;2022-09-09T21:59:57;9.18;;;5.30;;
50231;SDS011;36118;56.468;84.952;2022-09-09T22:04:59;9.48;;;5.18;;
50231;SDS011;36118;56.468;84.952;2022-09-09T22:10:03;8.13;;;4.65;;
50231;SDS011;36118;56.468;84.952;2022-09-09T22:15:07;8.63;;;4.05;;
50231;SDS011;36118;56.468;84.952;2022-09-09T22:20:10;8.50;;;4.00;;
50231;SDS011;36118;56.468;84.952;2022-09-09T22:25:13;11.73;;;4.85;;
50231;SDS011;36118;56.468;84.952;2022-09-09T22:30:16;11.80;;;4.63;;
50231;SDS011;36118;56.468;84.952;2022-09-09T22:35:20;8.52;;;4.65;;
50231;SDS011;36118;56.468;84.952;2022-09-09T22:40:23;7.95;;;4.18;;
50231;SDS011;36118;56.468;84.952;2022-09-09T22:45:26;7.47;;;3.97;;
50231;SDS011;36118;56.468;84.952;2022-09-09T22:50:32;8.77;;;4.13;;
50231;SDS011;36118;56.468;84.952;2022-09-09T22:55:42;8.60;;;4.20;;
50231;SDS011;36118;56.468;84.952;2022-09-09T23:00:57;11.67;;;4.50;;
50231;SDS011;36118;56.468;84.952;2022-09-09T23:06:01;9.75;;;4.88;;
50231;SDS011;36118;56.468;84.952;2022-09-09T23:11:06;7.28;;;3.88;;
50231;SDS011;36118;56.468;84.952;2022-09-09T23:21:14;11.10;;;4.43;;
50231;SDS011;36118;56.468;84.952;2022-09-09T23:26:17;8.38;;;4.30;;
50231;SDS011;36118;56.468;84.952;2022-09-09T23:31:21;9.48;;;4.30;;
50231;SDS011;36118;56.468;84.952;2022-09-09T23:36:26;10.93;;;4.27;;
50231;SDS011;36118;56.468;84.952;2022-09-09T23:41:33;10.93;;;5.05;;
50231;SDS011;36118;56.468;84.952;2022-09-09T23:46:37;8.18;;;4.38;;
50231;SDS011;36118;56.468;84.952;2022-09-09T23:51:40;7.95;;;3.90;;
50231;SDS011;36118;56.468;84.952;2022-09-09T23:56:43;7.82;;;3.80;;
